createdAt,value
2018-05-31T00:03:34.474Z,19.55
2018-05-31T00:09:38.843Z,19.44
2018-05-31T00:15:43.253Z,19.50
2018-05-31T00:21:48.414Z,19.33
2018-05-31T00:27:53.472Z,19.14
2018-05-31T00:33:58.679Z,19.13
2018-05-31T00:40:03.181Z,19.01
2018-05-31T00:46:07.576Z,18.83
2018-05-31T00:52:12.102Z,18.92
2018-05-31T00:58:16.484Z,18.68
2018-05-31T01:04:20.856Z,18.74
2018-05-31T01:10:25.354Z,18.54
2018-05-31T01:16:29.766Z,18.54
2018-05-31T01:22:34.355Z,18.51
2018-05-31T01:28:38.855Z,18.33
2018-05-31T01:34:44.042Z,18.14
2018-05-31T01:40:48.435Z,18.15
2018-05-31T01:46:52.968Z,18.29
2018-05-31T01:52:57.329Z,18.39
2018-05-31T01:59:01.704Z,18.37
2018-05-31T02:05:06.189Z,18.38
2018-05-31T02:11:10.752Z,18.10
2018-05-31T02:17:15.201Z,18.08
2018-05-31T02:23:20.553Z,18.08
2018-05-31T02:29:25.480Z,17.81
2018-05-31T02:35:30.625Z,17.90
2018-05-31T02:41:35.036Z,17.68
2018-05-31T02:47:39.787Z,17.68
2018-05-31T02:53:44.784Z,17.87
2018-05-31T02:59:50.820Z,17.75
2018-05-31T03:05:55.410Z,17.85
2018-05-31T03:11:59.851Z,17.77
2018-05-31T03:18:05.075Z,17.86
2018-05-31T03:24:09.562Z,17.82
2018-05-31T03:30:14.116Z,17.72
2018-05-31T03:36:18.507Z,17.80
2018-05-31T03:42:23.021Z,17.82
2018-05-31T03:48:27.588Z,17.96
2018-05-31T03:54:32.191Z,17.77
2018-05-31T04:00:36.573Z,17.91
2018-05-31T04:06:40.993Z,18.07
2018-05-31T04:12:46.156Z,18.31
2018-05-31T04:18:50.539Z,18.66
2018-05-31T04:24:55.579Z,18.80
2018-05-31T04:31:00.075Z,18.75
2018-05-31T04:37:04.526Z,18.93
2018-05-31T04:43:09.654Z,18.86
2018-05-31T04:49:14.028Z,18.91
2018-05-31T04:55:18.403Z,19.18
2018-05-31T05:01:23.993Z,19.30
2018-05-31T05:07:28.701Z,19.40
2018-05-31T05:13:33.091Z,19.67
2018-05-31T05:19:37.953Z,19.80
2018-05-31T05:25:42.316Z,20.06
2018-05-31T05:31:46.740Z,20.40
2018-05-31T05:37:52.541Z,20.48
2018-05-31T05:43:56.906Z,20.81
2018-05-31T05:50:01.278Z,20.96
2018-05-31T05:56:05.689Z,21.39
2018-05-31T06:02:10.963Z,21.68
2018-05-31T06:08:16.116Z,21.96
2018-05-31T06:14:20.764Z,22.09
2018-05-31T06:20:25.940Z,22.40
2018-05-31T06:26:30.623Z,22.75
2018-05-31T06:32:34.785Z,23.09
2018-05-31T06:38:39.160Z,23.15
2018-05-31T06:44:43.530Z,23.63
2018-05-31T06:50:47.907Z,24.09
2018-05-31T06:56:52.996Z,24.46
2018-05-31T07:02:57.380Z,24.86
2018-05-31T07:09:01.709Z,24.88
2018-05-31T07:15:06.125Z,25.17
2018-05-31T07:21:10.563Z,25.33
2018-05-31T07:27:14.992Z,25.75
2018-05-31T07:33:20.527Z,26.05
2018-05-31T07:39:26.594Z,26.29
2018-05-31T07:45:30.941Z,26.55
2018-05-31T07:51:35.325Z,26.83
2018-05-31T07:57:39.678Z,27.23
2018-05-31T08:03:44.479Z,27.50
2018-05-31T08:09:48.828Z,27.86
2018-05-31T08:15:53.341Z,28.28
2018-05-31T08:21:57.734Z,28.53
2018-05-31T08:28:02.048Z,29.21
2018-05-31T08:34:06.469Z,29.25
2018-05-31T08:40:10.839Z,29.62
2018-05-31T08:46:15.190Z,29.91
2018-05-31T08:52:19.574Z,29.81
2018-05-31T08:58:24.101Z,30.13
2018-05-31T09:04:29.221Z,30.64
2018-05-31T09:10:33.693Z,30.79
2018-05-31T09:16:38.054Z,31.36
2018-05-31T09:22:43.136Z,31.63
2018-05-31T09:28:47.520Z,32.15
2018-05-31T09:34:53.139Z,32.14
2018-05-31T09:40:57.678Z,32.22
2018-05-31T09:47:02.037Z,32.66
2018-05-31T09:53:06.393Z,32.95
2018-05-31T09:59:10.733Z,33.50
2018-05-31T10:05:15.881Z,33.35
2018-05-31T10:11:20.260Z,33.51
2018-05-31T10:17:24.769Z,33.79
2018-05-31T10:23:29.921Z,33.47
2018-05-31T10:29:34.259Z,34.40
2018-05-31T10:35:38.828Z,34.85
2018-05-31T10:41:43.220Z,35.22
2018-05-31T10:47:47.569Z,35.66
2018-05-31T10:53:52.865Z,35.61
2018-05-31T10:59:57.311Z,35.74
2018-05-31T11:06:01.654Z,35.22
2018-05-31T11:12:05.992Z,35.61
2018-05-31T11:18:11.119Z,35.69
2018-05-31T11:24:15.473Z,36.03
2018-05-31T11:30:20.535Z,35.42
2018-05-31T11:36:24.953Z,35.95
2018-05-31T11:42:29.303Z,36.38
2018-05-31T11:48:34.385Z,36.75
2018-05-31T11:54:38.764Z,36.71
2018-05-31T12:00:43.083Z,37.52
2018-05-31T12:06:47.456Z,38.08
2018-05-31T12:12:52.830Z,38.20
2018-05-31T12:18:57.337Z,37.57
2018-05-31T12:25:01.686Z,37.93
2018-05-31T12:31:06.032Z,37.26
2018-05-31T12:37:10.377Z,38.30
2018-05-31T12:43:14.728Z,39.19
2018-05-31T12:49:19.124Z,38.54
2018-05-31T12:55:23.598Z,38.65
2018-05-31T13:01:27.961Z,39.53
2018-05-31T13:07:32.271Z,40.22
2018-05-31T13:13:37.506Z,40.60
2018-05-31T13:19:41.858Z,39.80
2018-05-31T13:25:46.997Z,39.49
2018-05-31T13:31:51.783Z,37.56
2018-05-31T13:37:56.130Z,38.11
2018-05-31T13:44:00.491Z,39.19
2018-05-31T13:50:05.629Z,40.00
2018-05-31T13:56:09.969Z,40.45
2018-05-31T14:02:14.323Z,40.81
2018-05-31T14:08:19.441Z,41.22
2018-05-31T14:14:23.810Z,41.77
2018-05-31T14:20:28.172Z,41.49
2018-05-31T14:26:33.294Z,40.71
2018-05-31T14:32:37.657Z,39.02
2018-05-31T14:38:42.026Z,37.25
2018-05-31T14:44:46.375Z,35.63
2018-05-31T14:50:51.496Z,34.34
2018-05-31T14:56:55.864Z,34.08
2018-05-31T15:03:00.221Z,33.68
2018-05-31T15:09:07.999Z,33.24
2018-05-31T15:15:12.341Z,32.59
2018-05-31T15:21:16.838Z,32.82
2018-05-31T15:27:21.253Z,32.74
2018-05-31T15:33:25.689Z,32.89
2018-05-31T15:39:30.806Z,32.92
2018-05-31T15:45:35.161Z,33.15
2018-05-31T15:51:40.291Z,33.37
2018-05-31T15:57:44.651Z,32.99
2018-05-31T16:03:48.961Z,32.39
2018-05-31T16:09:53.395Z,31.92
2018-05-31T16:15:57.761Z,31.60
2018-05-31T16:22:02.863Z,31.45
2018-05-31T16:28:07.224Z,30.99
2018-05-31T16:34:11.567Z,30.83
2018-05-31T16:40:15.912Z,31.02
2018-05-31T16:46:20.254Z,30.73
2018-05-31T16:52:24.625Z,30.09
2018-05-31T16:58:28.955Z,29.83
2018-05-31T17:04:33.314Z,29.48
2018-05-31T17:10:37.657Z,29.45
2018-05-31T17:16:42.026Z,29.01
2018-05-31T17:22:47.119Z,28.82
2018-05-31T17:28:51.472Z,28.82
2018-05-31T17:34:56.577Z,28.47
2018-05-31T17:41:00.923Z,28.53
2018-05-31T17:47:05.284Z,28.10
2018-05-31T17:53:10.442Z,28.11
2018-05-31T17:59:14.771Z,28.00
2018-05-31T18:05:19.154Z,27.48
2018-05-31T18:11:24.305Z,27.10
2018-05-31T18:17:28.645Z,26.96
2018-05-31T18:23:33.006Z,26.67
2018-05-31T18:29:38.107Z,26.47
2018-05-31T18:35:42.453Z,26.43
2018-05-31T18:41:47.567Z,26.03
2018-05-31T18:47:52.874Z,25.74
2018-05-31T18:53:57.284Z,25.33
2018-05-31T19:00:01.658Z,24.96
2018-05-31T19:06:06.879Z,24.75
2018-05-31T19:12:11.236Z,24.75
2018-05-31T19:18:21.442Z,24.47
2018-05-31T19:24:32.170Z,24.15
2018-05-31T19:30:41.984Z,24.03
2018-05-31T19:36:53.359Z,23.90
2018-05-31T19:43:03.463Z,23.81
2018-05-31T19:49:08.631Z,23.69
2018-05-31T19:55:12.973Z,23.46
2018-05-31T20:01:23.177Z,23.68
2018-05-31T20:07:27.580Z,23.67
2018-05-31T20:13:31.929Z,23.41
2018-05-31T20:19:36.289Z,23.57
2018-05-31T20:25:40.656Z,23.11
2018-05-31T20:31:45.366Z,23.07
2018-05-31T20:37:49.731Z,22.81
2018-05-31T20:43:54.277Z,22.73
2018-05-31T20:49:59.408Z,22.64
2018-05-31T20:56:03.781Z,22.73
2018-05-31T21:02:08.128Z,22.93
2018-05-31T21:08:12.489Z,22.77
2018-05-31T21:14:17.613Z,22.60
2018-05-31T21:20:22.052Z,22.61
2018-05-31T21:26:26.408Z,22.43
2018-05-31T21:32:30.788Z,22.55
2018-05-31T21:38:35.150Z,22.36
2018-05-31T21:44:39.526Z,22.37
2018-05-31T21:50:43.875Z,22.13
2018-05-31T21:56:48.292Z,22.23
2018-05-31T22:02:53.560Z,21.86
2018-05-31T22:08:57.912Z,21.92
2018-05-31T22:15:02.269Z,21.83
2018-05-31T22:21:06.631Z,21.94
2018-05-31T22:27:11.749Z,21.84
2018-05-31T22:33:16.103Z,21.81
2018-05-31T22:39:21.240Z,21.78
2018-05-31T22:45:25.589Z,21.70
2018-05-31T22:51:29.985Z,21.56
2018-05-31T22:57:34.333Z,21.61
2018-05-31T23:03:38.658Z,21.13
2018-05-31T23:09:43.046Z,21.16
2018-05-31T23:15:48.182Z,21.17
2018-05-31T23:34:57.591Z,20.59
2018-05-31T23:41:02.720Z,20.45
2018-05-31T23:47:07.076Z,20.42
2018-05-31T23:53:11.426Z,20.47
2018-05-31T23:59:16.609Z,20.37
